sensor_id;sensor_type;location;lat;lon;timestamp;pressure;altitude;pressure_sealevel;temperature;humidity
59289;BME280;45056;47.602;9.886;2023-04-06T00:00:03;93037.50;;;3.00;50.03
59289;BME280;45056;47.602;9.886;2023-04-06T00:02:35;93035.22;;;2.99;49.82
59289;BME280;45056;47.602;9.886;2023-04-06T00:05:03;93038.28;;;2.97;49.95
59289;BME280;45056;47.602;9.886;2023-04-06T00:07:33;93032.53;;;2.95;49.83
59289;BME280;45056;47.602;9.886;2023-04-06T00:10:02;93036.38;;;2.94;49.91
59289;BME280;45056;47.602;9.886;2023-04-06T00:12:31;93025.25;;;2.92;50.24
59289;BME280;45056;47.602;9.886;2023-04-06T00:15:00;93024.88;;;2.90;49.94
59289;BME280;45056;47.602;9.886;2023-04-06T00:17:31;93027.97;;;2.85;50.01
59289;BME280;45056;47.602;9.886;2023-04-06T00:19:59;93026.06;;;2.82;49.52
59289;BME280;45056;47.602;9.886;2023-04-06T00:22:27;93027.59;;;2.79;49.63
59289;BME280;45056;47.602;9.886;2023-04-06T00:24:55;93016.06;;;2.79;49.75
59289;BME280;45056;47.602;9.886;2023-04-06T00:27:23;93019.53;;;2.76;49.33
59289;BME280;45056;47.602;9.886;2023-04-06T00:29:51;93018.03;;;2.71;49.84
59289;BME280;45056;47.602;9.886;2023-04-06T00:32:20;93013.44;;;2.64;49.40
59289;BME280;45056;47.602;9.886;2023-04-06T00:34:48;93011.91;;;2.63;49.48
59289;BME280;45056;47.602;9.886;2023-04-06T00:37:16;93014.97;;;2.62;49.09
59289;BME280;45056;47.602;9.886;2023-04-06T00:39:45;93012.28;;;2.62;49.41
59289;BME280;45056;47.602;9.886;2023-04-06T00:42:14;93008.06;;;2.64;49.99
59289;BME280;45056;47.602;9.886;2023-04-06T00:44:42;93019.97;;;2.67;49.64
59289;BME280;45056;47.602;9.886;2023-04-06T00:47:10;93019.19;;;2.70;48.88
59289;BME280;45056;47.602;9.886;2023-04-06T00:49:40;93006.88;;;2.72;48.86
59289;BME280;45056;47.602;9.886;2023-04-06T00:52:08;93007.66;;;2.73;48.76
59289;BME280;45056;47.602;9.886;2023-04-06T00:54:36;93003.81;;;2.74;48.97
59289;BME280;45056;47.602;9.886;2023-04-06T00:57:05;93005.34;;;2.71;48.83
59289;BME280;45056;47.602;9.886;2023-04-06T00:59:33;93004.22;;;2.69;48.78
59289;BME280;45056;47.602;9.886;2023-04-06T01:02:02;92998.84;;;2.69;48.89
59289;BME280;45056;47.602;9.886;2023-04-06T01:04:30;92999.22;;;2.71;48.87
59289;BME280;45056;47.602;9.886;2023-04-06T01:07:00;92995.38;;;2.68;48.33
59289;BME280;45056;47.602;9.886;2023-04-06T01:09:29;93001.16;;;2.67;48.56
59289;BME280;45056;47.602;9.886;2023-04-06T01:11:57;92995.38;;;2.68;48.27
59289;BME280;45056;47.602;9.886;2023-04-06T01:14:27;92999.97;;;2.71;48.25
59289;BME280;45056;47.602;9.886;2023-04-06T01:16:58;92994.97;;;2.73;48.18
59289;BME280;45056;47.602;9.886;2023-04-06T01:19:28;92987.28;;;2.76;48.61
59289;BME280;45056;47.602;9.886;2023-04-06T01:21:56;92989.19;;;2.79;48.69
59289;BME280;45056;47.602;9.886;2023-04-06T01:24:25;92983.44;;;2.80;48.39
59289;BME280;45056;47.602;9.886;2023-04-06T01:26:53;92987.66;;;2.81;48.35
59289;BME280;45056;47.602;9.886;2023-04-06T01:29:23;92989.19;;;2.82;48.52
59289;BME280;45056;47.602;9.886;2023-04-06T01:31:51;92983.81;;;2.82;48.52
59289;BME280;45056;47.602;9.886;2023-04-06T01:34:19;92985.75;;;2.82;48.55
59289;BME280;45056;47.602;9.886;2023-04-06T01:36:48;92973.44;;;2.84;47.99
59289;BME280;45056;47.602;9.886;2023-04-06T01:39:16;92969.22;;;2.87;47.67
59289;BME280;45056;47.602;9.886;2023-04-06T01:41:45;92975.34;;;2.87;47.78
59289;BME280;45056;47.602;9.886;2023-04-06T01:44:17;92962.69;;;2.88;47.66
59289;BME280;45056;47.602;9.886;2023-04-06T01:46:46;92971.91;;;2.87;47.70
59289;BME280;45056;47.602;9.886;2023-04-06T01:49:13;92974.59;;;2.87;48.19
59289;BME280;45056;47.602;9.886;2023-04-06T01:51:42;92961.53;;;2.85;48.48
59289;BME280;45056;47.602;9.886;2023-04-06T01:54:10;92963.84;;;2.87;48.58
59289;BME280;45056;47.602;9.886;2023-04-06T01:56:38;92963.06;;;2.86;48.69
59289;BME280;45056;47.602;9.886;2023-04-06T01:59:07;92961.56;;;2.82;48.38
59289;BME280;45056;47.602;9.886;2023-04-06T02:01:35;92964.63;;;2.80;48.63
59289;BME280;45056;47.602;9.886;2023-04-06T02:04:04;92967.69;;;2.79;48.72
59289;BME280;45056;47.602;9.886;2023-04-06T02:06:31;92964.25;;;2.78;48.76
59289;BME280;45056;47.602;9.886;2023-04-06T02:08:59;92968.09;;;2.77;48.75
59289;BME280;45056;47.602;9.886;2023-04-06T02:11:28;92963.50;;;2.74;49.18
59289;BME280;45056;47.602;9.886;2023-04-06T02:13:56;92970.81;;;2.70;49.39
59289;BME280;45056;47.602;9.886;2023-04-06T02:16:28;92971.59;;;2.67;49.31
59289;BME280;45056;47.602;9.886;2023-04-06T02:18:56;92963.16;;;2.65;49.35
59289;BME280;45056;47.602;9.886;2023-04-06T02:21:24;92970.47;;;2.64;49.16
59289;BME280;45056;47.602;9.886;2023-04-06T02:23:52;92957.03;;;2.64;49.45
59289;BME280;45056;47.602;9.886;2023-04-06T02:26:20;92957.41;;;2.63;49.52
59289;BME280;45056;47.602;9.886;2023-04-06T02:28:48;92966.25;;;2.59;49.46
59289;BME280;45056;47.602;9.886;2023-04-06T02:31:16;92962.44;;;2.57;48.83
59289;BME280;45056;47.602;9.886;2023-04-06T02:33:45;92960.16;;;2.52;48.75
59289;BME280;45056;47.602;9.886;2023-04-06T02:36:13;92962.84;;;2.52;48.53
59289;BME280;45056;47.602;9.886;2023-04-06T02:38:41;92955.53;;;2.49;48.24
59289;BME280;45056;47.602;9.886;2023-04-06T02:41:10;92955.53;;;2.49;47.84
59289;BME280;45056;47.602;9.886;2023-04-06T02:43:38;92957.09;;;2.46;48.17
59289;BME280;45056;47.602;9.886;2023-04-06T02:46:06;92954.78;;;2.44;48.17
59289;BME280;45056;47.602;9.886;2023-04-06T02:48:33;92957.09;;;2.42;47.80
59289;BME280;45056;47.602;9.886;2023-04-06T02:51:04;92944.06;;;2.41;47.84
59289;BME280;45056;47.602;9.886;2023-04-06T02:53:32;92954.44;;;2.39;47.95
59289;BME280;45056;47.602;9.886;2023-04-06T02:56:00;92952.13;;;2.37;48.07
59289;BME280;45056;47.602;9.886;2023-04-06T02:58:28;92951.75;;;2.35;47.59
59289;BME280;45056;47.602;9.886;2023-04-06T03:00:56;92950.22;;;2.34;48.07
59289;BME280;45056;47.602;9.886;2023-04-06T03:03:24;92944.84;;;2.34;48.19
59289;BME280;45056;47.602;9.886;2023-04-06T03:05:53;92946.75;;;2.34;48.50
59289;BME280;45056;47.602;9.886;2023-04-06T03:08:24;92946.38;;;2.35;48.78
59289;BME280;45056;47.602;9.886;2023-04-06T03:10:52;92944.84;;;2.38;48.52
59289;BME280;45056;47.602;9.886;2023-04-06T03:13:20;92947.13;;;2.39;48.44
59289;BME280;45056;47.602;9.886;2023-04-06T03:15:48;92942.91;;;2.42;47.89
59289;BME280;45056;47.602;9.886;2023-04-06T03:18:20;92941.34;;;2.44;48.03
59289;BME280;45056;47.602;9.886;2023-04-06T03:20:49;92940.56;;;2.48;48.27
59289;BME280;45056;47.602;9.886;2023-04-06T03:23:17;92944.03;;;2.48;47.74
59289;BME280;45056;47.602;9.886;2023-04-06T03:25:48;92944.78;;;2.49;47.13
59289;BME280;45056;47.602;9.886;2023-04-06T03:28:16;92940.97;;;2.50;47.14
59289;BME280;45056;47.602;9.886;2023-04-06T03:30:45;92935.97;;;2.52;46.85
59289;BME280;45056;47.602;9.886;2023-04-06T03:33:13;92942.09;;;2.52;46.84
59289;BME280;45056;47.602;9.886;2023-04-06T03:35:41;92944.41;;;2.54;46.54
59289;BME280;45056;47.602;9.886;2023-04-06T03:38:10;92937.09;;;2.58;46.56
59289;BME280;45056;47.602;9.886;2023-04-06T03:40:37;92939.38;;;2.59;46.34
59289;BME280;45056;47.602;9.886;2023-04-06T03:43:07;92940.91;;;2.60;45.96
59289;BME280;45056;47.602;9.886;2023-04-06T03:45:35;92940.91;;;2.60;46.02
59289;BME280;45056;47.602;9.886;2023-04-06T03:48:03;92939.00;;;2.61;46.23
59289;BME280;45056;47.602;9.886;2023-04-06T03:50:32;92944.00;;;2.55;46.28
59289;BME280;45056;47.602;9.886;2023-04-06T03:52:59;92950.16;;;2.49;46.73
59289;BME280;45056;47.602;9.886;2023-04-06T03:55:29;92945.59;;;2.42;46.96
59289;BME280;45056;47.602;9.886;2023-04-06T03:57:57;92947.91;;;2.36;47.20
59289;BME280;45056;47.602;9.886;2023-04-06T04:00:27;92944.84;;;2.30;47.20
59289;BME280;45056;47.602;9.886;2023-04-06T04:02:55;92955.22;;;2.28;47.47
59289;BME280;45056;47.602;9.886;2023-04-06T04:05:23;92957.13;;;2.31;47.27
59289;BME280;45056;47.602;9.886;2023-04-06T04:07:52;92951.00;;;2.35;46.76
59289;BME280;45056;47.602;9.886;2023-04-06T04:10:20;92955.19;;;2.39;47.04
59289;BME280;45056;47.602;9.886;2023-04-06T04:12:48;92959.41;;;2.44;47.05
59289;BME280;45056;47.602;9.886;2023-04-06T04:15:16;92959.78;;;2.46;47.60
59289;BME280;45056;47.602;9.886;2023-04-06T04:17:46;92951.72;;;2.46;47.50
59289;BME280;45056;47.602;9.886;2023-04-06T04:20:17;92970.13;;;2.44;47.71
59289;BME280;45056;47.602;9.886;2023-04-06T04:22:45;92959.03;;;2.42;48.14
59289;BME280;45056;47.602;9.886;2023-04-06T04:25:13;92962.47;;;2.42;48.05
59289;BME280;45056;47.602;9.886;2023-04-06T04:27:41;92961.34;;;2.40;48.10
59289;BME280;45056;47.602;9.886;2023-04-06T04:30:10;92968.22;;;2.37;48.40
59289;BME280;45056;47.602;9.886;2023-04-06T04:32:38;92964.03;;;2.36;48.35
59289;BME280;45056;47.602;9.886;2023-04-06T04:35:08;92963.28;;;2.36;48.38
59289;BME280;45056;47.602;9.886;2023-04-06T04:37:37;92965.19;;;2.35;48.73
59289;BME280;45056;47.602;9.886;2023-04-06T04:40:07;92969.38;;;2.36;48.69
59289;BME280;45056;47.602;9.886;2023-04-06T04:42:35;92962.50;;;2.35;49.05
59289;BME280;45056;47.602;9.886;2023-04-06T04:45:04;92971.31;;;2.36;48.63
59289;BME280;45056;47.602;9.886;2023-04-06T04:47:32;92964.03;;;2.36;48.82
59289;BME280;45056;47.602;9.886;2023-04-06T04:50:00;92969.00;;;2.38;48.69
59289;BME280;45056;47.602;9.886;2023-04-06T04:52:30;92974.75;;;2.40;48.51
59289;BME280;45056;47.602;9.886;2023-04-06T04:54:58;92969.00;;;2.45;47.80
59289;BME280;45056;47.602;9.886;2023-04-06T04:57:26;92967.06;;;2.49;47.62
59289;BME280;45056;47.602;9.886;2023-04-06T04:59:54;92972.06;;;2.51;47.55
59289;BME280;45056;47.602;9.886;2023-04-06T05:02:22;92969.75;;;2.53;47.33
59289;BME280;45056;47.602;9.886;2023-04-06T05:04:50;92973.53;;;2.55;47.39
59289;BME280;45056;47.602;9.886;2023-04-06T05:07:18;92970.88;;;2.55;47.35
59289;BME280;45056;47.602;9.886;2023-04-06T05:09:48;92978.16;;;2.55;47.61
59289;BME280;45056;47.602;9.886;2023-04-06T05:12:17;92976.63;;;2.54;47.79
59289;BME280;45056;47.602;9.886;2023-04-06T05:14:46;92976.25;;;2.52;47.71
59289;BME280;45056;47.602;9.886;2023-04-06T05:17:14;92973.22;;;2.50;48.02
59289;BME280;45056;47.602;9.886;2023-04-06T05:19:43;92980.84;;;2.48;48.08
59289;BME280;45056;47.602;9.886;2023-04-06T05:22:11;92973.22;;;2.46;48.07
59289;BME280;45056;47.602;9.886;2023-04-06T05:24:42;92977.81;;;2.42;47.90
59289;BME280;45056;47.602;9.886;2023-04-06T05:27:12;92983.94;;;2.42;48.15
59289;BME280;45056;47.602;9.886;2023-04-06T05:29:40;92984.31;;;2.44;48.33
59289;BME280;45056;47.602;9.886;2023-04-06T05:32:08;92983.94;;;2.50;48.35
59289;BME280;45056;47.602;9.886;2023-04-06T05:34:36;92990.06;;;2.54;48.43
59289;BME280;45056;47.602;9.886;2023-04-06T05:37:04;92985.44;;;2.58;48.80
59289;BME280;45056;47.602;9.886;2023-04-06T05:39:32;92987.72;;;2.63;48.73
59289;BME280;45056;47.602;9.886;2023-04-06T05:42:03;92986.56;;;2.68;48.38
59289;BME280;45056;47.602;9.886;2023-04-06T05:44:34;92990.75;;;2.72;48.23
59289;BME280;45056;47.602;9.886;2023-04-06T05:47:02;92994.56;;;2.79;48.44
59289;BME280;45056;47.602;9.886;2023-04-06T05:49:31;93003.78;;;2.85;48.33
59289;BME280;45056;47.602;9.886;2023-04-06T05:51:59;93006.06;;;2.90;47.58
59289;BME280;45056;47.602;9.886;2023-04-06T05:54:27;92999.50;;;2.98;47.01
59289;BME280;45056;47.602;9.886;2023-04-06T05:56:55;93000.97;;;3.07;47.32
59289;BME280;45056;47.602;9.886;2023-04-06T05:59:23;93007.47;;;3.16;47.43
59289;BME280;45056;47.602;9.886;2023-04-06T06:01:52;93008.19;;;3.24;46.25
59289;BME280;45056;47.602;9.886;2023-04-06T06:04:21;93009.69;;;3.32;46.22
59289;BME280;45056;47.602;9.886;2023-04-06T06:06:48;93002.72;;;3.42;46.07
59289;BME280;45056;47.602;9.886;2023-04-06T06:09:16;93009.56;;;3.51;45.99
59289;BME280;45056;47.602;9.886;2023-04-06T06:11:44;93008.38;;;3.59;45.99
59289;BME280;45056;47.602;9.886;2023-04-06T06:14:12;93009.47;;;3.69;45.49
59289;BME280;45056;47.602;9.886;2023-04-06T06:16:40;93007.84;;;3.79;44.89
59289;BME280;45056;47.602;9.886;2023-04-06T06:19:10;93013.53;;;3.88;44.53
59289;BME280;45056;47.602;9.886;2023-04-06T06:21:38;93016.56;;;3.97;44.31
59289;BME280;45056;47.602;9.886;2023-04-06T06:24:07;93019.19;;;4.08;44.41
59289;BME280;45056;47.602;9.886;2023-04-06T06:26:35;93011.41;;;4.17;44.35
59289;BME280;45056;47.602;9.886;2023-04-06T06:29:03;93017.84;;;4.27;44.06
59289;BME280;45056;47.602;9.886;2023-04-06T06:31:32;93008.91;;;4.38;44.11
59289;BME280;45056;47.602;9.886;2023-04-06T06:34:00;93004.56;;;4.47;44.05
59289;BME280;45056;47.602;9.886;2023-04-06T06:36:30;93020.28;;;4.56;43.10
59289;BME280;45056;47.602;9.886;2023-04-06T06:38:58;93007.47;;;4.64;42.58
59289;BME280;45056;47.602;9.886;2023-04-06T06:41:27;93015.50;;;4.71;42.06
59289;BME280;45056;47.602;9.886;2023-04-06T06:43:55;93015.78;;;4.81;41.93
59289;BME280;45056;47.602;9.886;2023-04-06T06:46:23;93016.41;;;4.92;41.60
59289;BME280;45056;47.602;9.886;2023-04-06T06:48:51;93020.97;;;4.99;41.10
59289;BME280;45056;47.602;9.886;2023-04-06T06:51:19;93021.22;;;5.08;41.16
59289;BME280;45056;47.602;9.886;2023-04-06T06:53:48;93023.44;;;5.17;40.99
59289;BME280;45056;47.602;9.886;2023-04-06T06:56:16;93026.38;;;5.30;40.93
59289;BME280;45056;47.602;9.886;2023-04-06T06:58:44;93027.31;;;5.47;40.64
59289;BME280;45056;47.602;9.886;2023-04-06T07:01:12;93029.59;;;5.76;40.49
59289;BME280;45056;47.602;9.886;2023-04-06T07:03:40;93022.97;;;6.56;38.44
59289;BME280;45056;47.602;9.886;2023-04-06T07:06:08;93030.88;;;8.01;37.36
59289;BME280;45056;47.602;9.886;2023-04-06T07:08:36;93023.44;;;9.69;35.59
59289;BME280;45056;47.602;9.886;2023-04-06T07:11:05;93020.00;;;11.26;33.67
59289;BME280;45056;47.602;9.886;2023-04-06T07:13:33;93031.78;;;12.49;30.69
59289;BME280;45056;47.602;9.886;2023-04-06T07:16:01;93025.78;;;13.01;29.34
59289;BME280;45056;47.602;9.886;2023-04-06T07:18:29;93026.81;;;12.85;29.02
59289;BME280;45056;47.602;9.886;2023-04-06T07:20:57;93032.66;;;12.37;29.39
59289;BME280;45056;47.602;9.886;2023-04-06T07:23:25;93030.31;;;11.85;29.79
59289;BME280;45056;47.602;9.886;2023-04-06T07:25:53;93029.13;;;11.32;30.38
59289;BME280;45056;47.602;9.886;2023-04-06T07:28:23;93032.91;;;10.90;30.96
59289;BME280;45056;47.602;9.886;2023-04-06T07:30:51;93033.75;;;10.65;31.30
59289;BME280;45056;47.602;9.886;2023-04-06T07:33:20;93035.47;;;10.59;31.74
59289;BME280;45056;47.602;9.886;2023-04-06T07:35:48;93033.03;;;10.74;33.28
59289;BME280;45056;47.602;9.886;2023-04-06T07:38:17;93023.47;;;11.26;31.76
59289;BME280;45056;47.602;9.886;2023-04-06T07:40:45;93028.66;;;11.88;30.81
59289;BME280;45056;47.602;9.886;2023-04-06T07:43:12;93030.09;;;12.43;31.17
59289;BME280;45056;47.602;9.886;2023-04-06T07:45:42;93028.53;;;13.10;30.96
59289;BME280;45056;47.602;9.886;2023-04-06T07:48:10;93030.81;;;13.92;29.90
59289;BME280;45056;47.602;9.886;2023-04-06T07:50:38;93034.44;;;14.75;29.23
59289;BME280;45056;47.602;9.886;2023-04-06T07:53:06;93034.41;;;15.54;28.59
59289;BME280;45056;47.602;9.886;2023-04-06T07:55:36;93036.34;;;16.08;27.72
59289;BME280;45056;47.602;9.886;2023-04-06T07:58:04;93041.59;;;16.41;26.98
59289;BME280;45056;47.602;9.886;2023-04-06T08:00:32;93032.13;;;16.42;26.48
59289;BME280;45056;47.602;9.886;2023-04-06T08:03:02;93036.41;;;16.28;26.53
59289;BME280;45056;47.602;9.886;2023-04-06T08:05:30;93030.00;;;16.17;26.59
59289;BME280;45056;47.602;9.886;2023-04-06T08:07:58;93029.81;;;16.05;25.98
59289;BME280;45056;47.602;9.886;2023-04-06T08:10:26;93032.09;;;15.92;25.56
59289;BME280;45056;47.602;9.886;2023-04-06T08:12:54;93031.22;;;15.85;25.27
59289;BME280;45056;47.602;9.886;2023-04-06T08:15:22;93032.84;;;15.77;25.26
59289;BME280;45056;47.602;9.886;2023-04-06T08:17:50;93034.16;;;15.67;24.81
59289;BME280;45056;47.602;9.886;2023-04-06T08:20:19;93028.75;;;15.72;24.72
59289;BME280;45056;47.602;9.886;2023-04-06T08:22:47;93027.81;;;15.76;25.10
59289;BME280;45056;47.602;9.886;2023-04-06T08:25:15;93035.38;;;15.66;25.25
59289;BME280;45056;47.602;9.886;2023-04-06T08:27:43;93035.59;;;15.77;25.25
59289;BME280;45056;47.602;9.886;2023-04-06T08:30:11;93034.72;;;15.86;24.61
59289;BME280;45056;47.602;9.886;2023-04-06T08:32:41;93036.69;;;15.55;24.65
59289;BME280;45056;47.602;9.886;2023-04-06T08:35:09;93038.78;;;15.06;24.00
59289;BME280;45056;47.602;9.886;2023-04-06T08:37:39;93034.84;;;14.49;24.34
59289;BME280;45056;47.602;9.886;2023-04-06T08:40:08;93046.34;;;13.86;25.29
59289;BME280;45056;47.602;9.886;2023-04-06T08:42:40;93044.56;;;13.36;26.38
59289;BME280;45056;47.602;9.886;2023-04-06T08:45:13;93044.88;;;12.92;27.40
59289;BME280;45056;47.602;9.886;2023-04-06T08:47:45;93040.59;;;12.63;27.27
59289;BME280;45056;47.602;9.886;2023-04-06T08:50:16;93044.78;;;12.36;26.89
59289;BME280;45056;47.602;9.886;2023-04-06T08:52:48;93047.63;;;12.32;27.04
59289;BME280;45056;47.602;9.886;2023-04-06T08:55:16;93051.03;;;12.55;27.87
59289;BME280;45056;47.602;9.886;2023-04-06T08:57:45;93047.00;;;12.88;27.81
59289;BME280;45056;47.602;9.886;2023-04-06T09:00:15;93045.19;;;13.22;26.89
59289;BME280;45056;47.602;9.886;2023-04-06T09:02:46;93038.47;;;13.69;26.57
59289;BME280;45056;47.602;9.886;2023-04-06T09:05:16;93030.38;;;14.27;25.88
59289;BME280;45056;47.602;9.886;2023-04-06T09:07:46;93033.13;;;14.85;25.38
59289;BME280;45056;47.602;9.886;2023-04-06T09:10:16;93036.94;;;15.27;24.73
59289;BME280;45056;47.602;9.886;2023-04-06T09:12:45;93039.34;;;15.50;24.18
59289;BME280;45056;47.602;9.886;2023-04-06T09:15:22;93041.41;;;15.55;23.28
59289;BME280;45056;47.602;9.886;2023-04-06T09:17:50;93031.94;;;15.41;23.25
59289;BME280;45056;47.602;9.886;2023-04-06T09:20:22;93030.78;;;15.18;23.37
59289;BME280;45056;47.602;9.886;2023-04-06T09:22:54;93031.75;;;14.90;23.64
59289;BME280;45056;47.602;9.886;2023-04-06T09:25:23;93039.34;;;14.62;23.66
59289;BME280;45056;47.602;9.886;2023-04-06T09:28:00;93030.97;;;14.32;23.74
59289;BME280;45056;47.602;9.886;2023-04-06T09:30:29;93033.53;;;14.02;24.02
59289;BME280;45056;47.602;9.886;2023-04-06T09:32:58;93037.56;;;13.73;24.64
59289;BME280;45056;47.602;9.886;2023-04-06T09:35:26;93036.84;;;13.44;24.43
59289;BME280;45056;47.602;9.886;2023-04-06T09:37:57;93035.31;;;13.24;24.60
59289;BME280;45056;47.602;9.886;2023-04-06T09:40:25;93033.06;;;13.13;24.82
59289;BME280;45056;47.602;9.886;2023-04-06T09:42:55;93031.84;;;13.15;25.02
59289;BME280;45056;47.602;9.886;2023-04-06T09:45:29;93029.41;;;13.07;24.99
59289;BME280;45056;47.602;9.886;2023-04-06T09:47:59;93028.03;;;12.93;25.01
59289;BME280;45056;47.602;9.886;2023-04-06T09:50:29;93031.81;;;12.77;25.38
59289;BME280;45056;47.602;9.886;2023-04-06T09:53:00;93016.16;;;12.59;25.78
59289;BME280;45056;47.602;9.886;2023-04-06T09:55:35;93033.56;;;12.43;26.16
59289;BME280;45056;47.602;9.886;2023-04-06T09:58:13;93024.75;;;12.30;26.48
59289;BME280;45056;47.602;9.886;2023-04-06T10:00:48;93015.66;;;12.23;26.82
59289;BME280;45056;47.602;9.886;2023-04-06T10:03:33;93029.00;;;12.21;26.90
59289;BME280;45056;47.602;9.886;2023-04-06T10:06:13;93019.13;;;12.24;27.41
59289;BME280;45056;47.602;9.886;2023-04-06T10:08:47;93020.34;;;12.23;26.95
59289;BME280;45056;47.602;9.886;2023-04-06T10:11:21;93021.25;;;12.20;27.16
59289;BME280;45056;47.602;9.886;2023-04-06T10:13:50;93021.38;;;12.16;27.08
59289;BME280;45056;47.602;9.886;2023-04-06T10:16:18;93026.22;;;12.12;26.53
59289;BME280;45056;47.602;9.886;2023-04-06T10:18:52;93033.47;;;12.06;26.47
59289;BME280;45056;47.602;9.886;2023-04-06T10:21:25;93025.53;;;11.98;26.54
59289;BME280;45056;47.602;9.886;2023-04-06T10:24:00;93014.00;;;11.94;26.53
59289;BME280;45056;47.602;9.886;2023-04-06T10:26:29;93009.75;;;11.93;26.70
59289;BME280;45056;47.602;9.886;2023-04-06T10:29:03;93015.06;;;11.97;27.38
59289;BME280;45056;47.602;9.886;2023-04-06T10:31:32;93014.69;;;12.08;27.74
59289;BME280;45056;47.602;9.886;2023-04-06T10:34:01;93013.66;;;12.15;27.21
59289;BME280;45056;47.602;9.886;2023-04-06T10:36:33;93013.53;;;12.18;26.33
59289;BME280;45056;47.602;9.886;2023-04-06T10:39:05;93023.53;;;12.21;26.38
59289;BME280;45056;47.602;9.886;2023-04-06T10:41:35;93010.47;;;12.16;25.86
59289;BME280;45056;47.602;9.886;2023-04-06T10:44:04;93020.91;;;12.08;25.86
59289;BME280;45056;47.602;9.886;2023-04-06T10:46:33;93013.41;;;12.00;25.99
59289;BME280;45056;47.602;9.886;2023-04-06T10:49:10;93016.47;;;12.02;26.07
59289;BME280;45056;47.602;9.886;2023-04-06T10:51:39;93012.41;;;12.06;26.74
59289;BME280;45056;47.602;9.886;2023-04-06T10:54:11;93014.53;;;12.02;26.10
59289;BME280;45056;47.602;9.886;2023-04-06T10:56:39;93016.59;;;11.98;26.84
59289;BME280;45056;47.602;9.886;2023-04-06T10:59:07;93012.03;;;11.95;27.61
59289;BME280;45056;47.602;9.886;2023-04-06T11:01:35;93010.69;;;12.00;26.83
59289;BME280;45056;47.602;9.886;2023-04-06T11:04:04;93001.63;;;12.03;27.64
59289;BME280;45056;47.602;9.886;2023-04-06T11:06:34;93003.34;;;12.09;28.05
59289;BME280;45056;47.602;9.886;2023-04-06T11:09:02;93013.84;;;12.20;28.35
59289;BME280;45056;47.602;9.886;2023-04-06T11:11:32;93013.84;;;12.30;27.44
59289;BME280;45056;47.602;9.886;2023-04-06T11:14:00;93013.56;;;12.37;26.97
59289;BME280;45056;47.602;9.886;2023-04-06T11:16:31;93008.88;;;12.47;26.88
59289;BME280;45056;47.602;9.886;2023-04-06T11:19:02;93008.59;;;12.54;26.61
59289;BME280;45056;47.602;9.886;2023-04-06T11:21:34;93010.28;;;12.61;26.10
59289;BME280;45056;47.602;9.886;2023-04-06T11:24:10;93002.84;;;12.61;25.95
59289;BME280;45056;47.602;9.886;2023-04-06T11:26:45;92993.13;;;12.60;26.40
59289;BME280;45056;47.602;9.886;2023-04-06T11:29:16;93003.47;;;12.65;27.38
59289;BME280;45056;47.602;9.886;2023-04-06T11:31:47;93001.34;;;12.69;27.49
59289;BME280;45056;47.602;9.886;2023-04-06T11:34:17;92989.22;;;12.80;27.95
59289;BME280;45056;47.602;9.886;2023-04-06T11:36:47;92996.78;;;12.94;27.92
59289;BME280;45056;47.602;9.886;2023-04-06T11:39:19;92993.59;;;13.05;27.49
59289;BME280;45056;47.602;9.886;2023-04-06T11:41:52;93000.28;;;13.13;27.38
59289;BME280;45056;47.602;9.886;2023-04-06T11:44:30;92987.97;;;13.18;27.69
59289;BME280;45056;47.602;9.886;2023-04-06T11:47:00;92981.44;;;13.25;28.01
59289;BME280;45056;47.602;9.886;2023-04-06T11:49:30;92984.47;;;13.36;27.27
59289;BME280;45056;47.602;9.886;2023-04-06T11:52:00;92986.44;;;13.45;27.50
59289;BME280;45056;47.602;9.886;2023-04-06T11:54:32;92987.03;;;13.49;27.59
59289;BME280;45056;47.602;9.886;2023-04-06T11:57:04;92980.66;;;13.52;27.35
59289;BME280;45056;47.602;9.886;2023-04-06T11:59:33;92986.59;;;13.51;27.09
59289;BME280;45056;47.602;9.886;2023-04-06T12:02:02;92983.88;;;13.51;26.59
59289;BME280;45056;47.602;9.886;2023-04-06T12:04:31;92978.41;;;13.51;27.01
59289;BME280;45056;47.602;9.886;2023-04-06T12:07:00;92990.22;;;13.57;27.45
59289;BME280;45056;47.602;9.886;2023-04-06T12:09:28;92980.16;;;13.63;27.04
59289;BME280;45056;47.602;9.886;2023-04-06T12:11:57;92984.72;;;13.66;27.98
59289;BME280;45056;47.602;9.886;2023-04-06T12:14:26;92977.41;;;13.73;26.59
59289;BME280;45056;47.602;9.886;2023-04-06T12:16:54;92976.81;;;13.78;27.74
59289;BME280;45056;47.602;9.886;2023-04-06T12:19:22;92975.69;;;13.84;27.08
59289;BME280;45056;47.602;9.886;2023-04-06T12:21:52;92977.34;;;13.91;27.18
59289;BME280;45056;47.602;9.886;2023-04-06T12:24:21;92974.91;;;13.93;27.54
59289;BME280;45056;47.602;9.886;2023-04-06T12:26:49;92977.19;;;13.95;27.24
59289;BME280;45056;47.602;9.886;2023-04-06T12:29:17;92966.69;;;13.93;27.41
59289;BME280;45056;47.602;9.886;2023-04-06T12:31:46;92970.78;;;13.98;28.65
59289;BME280;45056;47.602;9.886;2023-04-06T12:34:14;92972.75;;;13.97;27.86
59289;BME280;45056;47.602;9.886;2023-04-06T12:36:42;92968.69;;;13.93;27.34
59289;BME280;45056;47.602;9.886;2023-04-06T12:39:10;92968.41;;;13.91;27.36
59289;BME280;45056;47.602;9.886;2023-04-06T12:41:38;92974.31;;;13.89;27.73
59289;BME280;45056;47.602;9.886;2023-04-06T12:44:07;92966.25;;;13.95;28.05
59289;BME280;45056;47.602;9.886;2023-04-06T12:46:35;92963.03;;;13.96;27.51
59289;BME280;45056;47.602;9.886;2023-04-06T12:49:04;92965.13;;;14.02;27.66
59289;BME280;45056;47.602;9.886;2023-04-06T12:51:32;92962.28;;;13.96;27.50
59289;BME280;45056;47.602;9.886;2023-04-06T12:54:00;92961.88;;;13.88;28.35
59289;BME280;45056;47.602;9.886;2023-04-06T12:56:28;92960.19;;;13.91;29.34
59289;BME280;45056;47.602;9.886;2023-04-06T12:58:57;92965.03;;;13.96;28.53
59289;BME280;45056;47.602;9.886;2023-04-06T13:01:25;92965.63;;;14.00;28.56
59289;BME280;45056;47.602;9.886;2023-04-06T13:03:55;92961.19;;;14.03;29.19
59289;BME280;45056;47.602;9.886;2023-04-06T13:06:25;92957.22;;;14.04;28.35
59289;BME280;45056;47.602;9.886;2023-04-06T13:08:55;92959.06;;;14.07;27.67
59289;BME280;45056;47.602;9.886;2023-04-06T13:11:25;92950.38;;;14.08;28.04
59289;BME280;45056;47.602;9.886;2023-04-06T13:13:54;92946.72;;;14.11;28.22